sensor_id;sensor_type;location;lat;lon;timestamp;P1;durP1;ratioP1;P2;durP2;ratioP2
70467;SDS011;57934;51.532;7.684;2022-10-16T00:01:30;4.20;;;2.92;;
70467;SDS011;57934;51.532;7.684;2022-10-16T00:03:57;3.28;;;2.30;;
70467;SDS011;57934;51.532;7.684;2022-10-16T00:06:25;4.13;;;3.00;;
70467;SDS011;57934;51.532;7.684;2022-10-16T00:08:52;4.35;;;2.20;;
70467;SDS011;57934;51.532;7.684;2022-10-16T00:11:20;4.65;;;2.35;;
70467;SDS011;57934;51.532;7.684;2022-10-16T00:13:47;3.90;;;2.42;;
70467;SDS011;57934;51.532;7.684;2022-10-16T00:16:15;8.45;;;2.42;;
70467;SDS011;57934;51.532;7.684;2022-10-16T00:18:42;6.47;;;2.55;;
70467;SDS011;57934;51.532;7.684;2022-10-16T00:21:29;7.00;;;2.33;;
70467;SDS011;57934;51.532;7.684;2022-10-16T00:24:02;5.18;;;2.50;;
70467;SDS011;57934;51.532;7.684;2022-10-16T00:26:31;5.75;;;2.13;;
70467;SDS011;57934;51.532;7.684;2022-10-16T00:28:59;2.92;;;2.10;;
70467;SDS011;57934;51.532;7.684;2022-10-16T00:31:26;6.07;;;2.22;;
70467;SDS011;57934;51.532;7.684;2022-10-16T00:33:52;6.45;;;2.30;;
70467;SDS011;57934;51.532;7.684;2022-10-16T00:36:19;3.80;;;2.10;;
70467;SDS011;57934;51.532;7.684;2022-10-16T00:38:49;3.70;;;1.95;;
70467;SDS011;57934;51.532;7.684;2022-10-16T00:41:18;5.47;;;2.08;;
70467;SDS011;57934;51.532;7.684;2022-10-16T00:43:52;5.93;;;2.45;;
70467;SDS011;57934;51.532;7.684;2022-10-16T00:46:24;4.13;;;1.83;;
70467;SDS011;57934;51.532;7.684;2022-10-16T00:49:14;7.82;;;2.05;;
70467;SDS011;57934;51.532;7.684;2022-10-16T00:51:42;6.57;;;2.25;;
70467;SDS011;57934;51.532;7.684;2022-10-16T00:54:14;3.60;;;2.17;;
70467;SDS011;57934;51.532;7.684;2022-10-16T00:56:46;3.95;;;1.90;;
70467;SDS011;57934;51.532;7.684;2022-10-16T00:59:24;4.90;;;2.22;;
70467;SDS011;57934;51.532;7.684;2022-10-16T01:01:53;3.58;;;2.00;;
70467;SDS011;57934;51.532;7.684;2022-10-16T01:04:20;3.08;;;2.08;;
70467;SDS011;57934;51.532;7.684;2022-10-16T01:06:52;4.50;;;1.83;;
70467;SDS011;57934;51.532;7.684;2022-10-16T01:09:50;12.00;;;2.30;;
70467;SDS011;57934;51.532;7.684;2022-10-16T01:12:26;4.97;;;1.92;;
70467;SDS011;57934;51.532;7.684;2022-10-16T01:15:22;4.60;;;2.15;;
70467;SDS011;57934;51.532;7.684;2022-10-16T01:20:26;4.03;;;1.90;;
70467;SDS011;57934;51.532;7.684;2022-10-16T01:25:51;4.88;;;1.92;;
70467;SDS011;57934;51.532;7.684;2022-10-16T01:28:21;3.63;;;1.50;;
70467;SDS011;57934;51.532;7.684;2022-10-16T01:30:54;4.07;;;1.80;;
70467;SDS011;57934;51.532;7.684;2022-10-16T01:33:32;6.13;;;1.80;;
70467;SDS011;57934;51.532;7.684;2022-10-16T01:36:06;2.53;;;1.98;;
70467;SDS011;57934;51.532;7.684;2022-10-16T01:38:41;7.53;;;1.90;;
70467;SDS011;57934;51.532;7.684;2022-10-16T01:41:14;3.72;;;1.80;;
70467;SDS011;57934;51.532;7.684;2022-10-16T01:44:06;4.68;;;1.83;;
70467;SDS011;57934;51.532;7.684;2022-10-16T01:46:40;8.50;;;1.90;;
70467;SDS011;57934;51.532;7.684;2022-10-16T01:49:08;2.95;;;1.95;;
70467;SDS011;57934;51.532;7.684;2022-10-16T01:51:36;3.78;;;2.22;;
70467;SDS011;57934;51.532;7.684;2022-10-16T01:54:03;4.32;;;1.80;;
70467;SDS011;57934;51.532;7.684;2022-10-16T01:56:32;1.88;;;1.60;;
70467;SDS011;57934;51.532;7.684;2022-10-16T01:59:02;3.30;;;1.80;;
70467;SDS011;57934;51.532;7.684;2022-10-16T02:01:33;5.03;;;2.10;;
70467;SDS011;57934;51.532;7.684;2022-10-16T02:04:13;7.03;;;1.95;;
70467;SDS011;57934;51.532;7.684;2022-10-16T02:06:43;5.10;;;1.92;;
70467;SDS011;57934;51.532;7.684;2022-10-16T02:09:09;4.40;;;1.95;;
70467;SDS011;57934;51.532;7.684;2022-10-16T02:11:36;6.25;;;1.92;;
70467;SDS011;57934;51.532;7.684;2022-10-16T02:14:03;1.98;;;1.77;;
70467;SDS011;57934;51.532;7.684;2022-10-16T02:16:32;2.22;;;1.88;;
70467;SDS011;57934;51.532;7.684;2022-10-16T02:19:06;4.63;;;2.15;;
70467;SDS011;57934;51.532;7.684;2022-10-16T02:21:36;3.15;;;1.80;;
70467;SDS011;57934;51.532;7.684;2022-10-16T02:27:10;3.22;;;1.60;;
70467;SDS011;57934;51.532;7.684;2022-10-16T02:29:42;3.28;;;1.63;;
70467;SDS011;57934;51.532;7.684;2022-10-16T02:32:17;2.05;;;1.85;;
70467;SDS011;57934;51.532;7.684;2022-10-16T02:34:48;3.17;;;1.77;;
70467;SDS011;57934;51.532;7.684;2022-10-16T02:37:15;3.72;;;2.05;;
70467;SDS011;57934;51.532;7.684;2022-10-16T02:39:43;3.25;;;1.80;;
70467;SDS011;57934;51.532;7.684;2022-10-16T02:42:13;4.57;;;2.03;;
70467;SDS011;57934;51.532;7.684;2022-10-16T02:44:40;3.65;;;1.75;;
70467;SDS011;57934;51.532;7.684;2022-10-16T02:47:06;5.63;;;2.85;;
70467;SDS011;57934;51.532;7.684;2022-10-16T02:49:32;1.73;;;1.42;;
70467;SDS011;57934;51.532;7.684;2022-10-16T02:51:58;4.35;;;1.60;;
70467;SDS011;57934;51.532;7.684;2022-10-16T02:54:24;2.67;;;1.65;;
70467;SDS011;57934;51.532;7.684;2022-10-16T02:56:50;4.00;;;1.73;;
70467;SDS011;57934;51.532;7.684;2022-10-16T02:59:17;5.85;;;1.60;;
70467;SDS011;57934;51.532;7.684;2022-10-16T03:01:44;4.50;;;1.77;;
70467;SDS011;57934;51.532;7.684;2022-10-16T03:04:10;3.83;;;1.60;;
70467;SDS011;57934;51.532;7.684;2022-10-16T03:06:36;4.00;;;1.85;;
70467;SDS011;57934;51.532;7.684;2022-10-16T03:09:02;1.67;;;1.58;;
70467;SDS011;57934;51.532;7.684;2022-10-16T03:17:43;2.95;;;1.27;;
70467;SDS011;57934;51.532;7.684;2022-10-16T03:20:10;1.67;;;1.15;;
70467;SDS011;57934;51.532;7.684;2022-10-16T03:22:36;2.08;;;1.48;;
70467;SDS011;57934;51.532;7.684;2022-10-16T03:25:02;3.97;;;1.20;;
70467;SDS011;57934;51.532;7.684;2022-10-16T03:27:28;2.03;;;1.20;;
70467;SDS011;57934;51.532;7.684;2022-10-16T03:29:54;4.38;;;1.70;;
70467;SDS011;57934;51.532;7.684;2022-10-16T03:32:20;1.58;;;1.25;;
70467;SDS011;57934;51.532;7.684;2022-10-16T03:34:47;1.48;;;1.10;;
70467;SDS011;57934;51.532;7.684;2022-10-16T03:37:13;5.07;;;1.27;;
70467;SDS011;57934;51.532;7.684;2022-10-16T03:39:39;1.77;;;1.20;;
70467;SDS011;57934;51.532;7.684;2022-10-16T03:42:05;1.83;;;1.38;;
70467;SDS011;57934;51.532;7.684;2022-10-16T03:44:32;1.33;;;1.17;;
70467;SDS011;57934;51.532;7.684;2022-10-16T03:46:58;2.35;;;1.58;;
70467;SDS011;57934;51.532;7.684;2022-10-16T03:49:24;2.60;;;1.40;;
70467;SDS011;57934;51.532;7.684;2022-10-16T03:51:50;2.17;;;1.42;;
70467;SDS011;57934;51.532;7.684;2022-10-16T03:54:16;1.50;;;1.30;;
70467;SDS011;57934;51.532;7.684;2022-10-16T03:56:42;1.75;;;1.30;;
70467;SDS011;57934;51.532;7.684;2022-10-16T03:59:08;3.22;;;1.25;;
70467;SDS011;57934;51.532;7.684;2022-10-16T04:01:34;3.30;;;1.08;;
70467;SDS011;57934;51.532;7.684;2022-10-16T04:04:00;1.73;;;1.10;;
70467;SDS011;57934;51.532;7.684;2022-10-16T04:06:26;1.90;;;0.85;;
70467;SDS011;57934;51.532;7.684;2022-10-16T04:08:52;5.65;;;1.10;;
70467;SDS011;57934;51.532;7.684;2022-10-16T04:11:18;2.85;;;1.15;;
70467;SDS011;57934;51.532;7.684;2022-10-16T04:13:44;2.38;;;1.05;;
70467;SDS011;57934;51.532;7.684;2022-10-16T04:16:11;0.98;;;0.98;;
70467;SDS011;57934;51.532;7.684;2022-10-16T04:18:37;2.25;;;1.25;;
70467;SDS011;57934;51.532;7.684;2022-10-16T04:21:03;0.73;;;0.70;;
70467;SDS011;57934;51.532;7.684;2022-10-16T04:23:31;3.53;;;1.23;;
70467;SDS011;57934;51.532;7.684;2022-10-16T04:25:57;3.42;;;1.15;;
70467;SDS011;57934;51.532;7.684;2022-10-16T04:28:23;1.20;;;0.98;;
70467;SDS011;57934;51.532;7.684;2022-10-16T04:30:49;0.68;;;0.68;;
70467;SDS011;57934;51.532;7.684;2022-10-16T04:33:15;2.17;;;1.08;;
70467;SDS011;57934;51.532;7.684;2022-10-16T04:35:41;1.35;;;1.00;;
70467;SDS011;57934;51.532;7.684;2022-10-16T04:38:07;1.00;;;0.90;;
70467;SDS011;57934;51.532;7.684;2022-10-16T04:40:34;1.52;;;0.70;;
70467;SDS011;57934;51.532;7.684;2022-10-16T04:43:02;3.92;;;1.02;;
70467;SDS011;57934;51.532;7.684;2022-10-16T04:45:29;3.70;;;0.90;;
70467;SDS011;57934;51.532;7.684;2022-10-16T04:47:58;1.10;;;0.90;;
70467;SDS011;57934;51.532;7.684;2022-10-16T04:50:25;1.40;;;0.80;;
70467;SDS011;57934;51.532;7.684;2022-10-16T04:53:04;1.05;;;0.63;;
70467;SDS011;57934;51.532;7.684;2022-10-16T04:55:32;3.83;;;1.00;;
70467;SDS011;57934;51.532;7.684;2022-10-16T04:57:58;2.05;;;0.80;;
70467;SDS011;57934;51.532;7.684;2022-10-16T05:00:24;2.50;;;1.05;;
70467;SDS011;57934;51.532;7.684;2022-10-16T05:02:50;1.17;;;0.68;;
70467;SDS011;57934;51.532;7.684;2022-10-16T05:05:16;2.75;;;0.93;;
70467;SDS011;57934;51.532;7.684;2022-10-16T05:07:45;5.18;;;1.10;;
70467;SDS011;57934;51.532;7.684;2022-10-16T05:10:12;2.45;;;0.80;;
70467;SDS011;57934;51.532;7.684;2022-10-16T05:12:38;1.55;;;0.80;;
70467;SDS011;57934;51.532;7.684;2022-10-16T05:15:04;1.20;;;0.80;;
70467;SDS011;57934;51.532;7.684;2022-10-16T05:17:31;2.00;;;1.02;;
70467;SDS011;57934;51.532;7.684;2022-10-16T05:19:57;2.40;;;0.80;;
70467;SDS011;57934;51.532;7.684;2022-10-16T05:22:23;3.42;;;0.90;;
70467;SDS011;57934;51.532;7.684;2022-10-16T05:24:49;5.75;;;1.20;;
70467;SDS011;57934;51.532;7.684;2022-10-16T05:27:15;4.80;;;0.95;;
70467;SDS011;57934;51.532;7.684;2022-10-16T05:29:47;1.27;;;0.80;;
70467;SDS011;57934;51.532;7.684;2022-10-16T05:32:15;2.05;;;0.90;;
70467;SDS011;57934;51.532;7.684;2022-10-16T05:34:42;0.90;;;0.90;;
70467;SDS011;57934;51.532;7.684;2022-10-16T05:37:08;3.55;;;1.00;;
70467;SDS011;57934;51.532;7.684;2022-10-16T05:39:34;1.52;;;1.13;;
70467;SDS011;57934;51.532;7.684;2022-10-16T05:42:00;1.13;;;0.95;;
70467;SDS011;57934;51.532;7.684;2022-10-16T05:44:26;3.88;;;1.50;;
70467;SDS011;57934;51.532;7.684;2022-10-16T05:46:52;2.20;;;0.85;;
70467;SDS011;57934;51.532;7.684;2022-10-16T05:49:18;1.92;;;1.00;;
70467;SDS011;57934;51.532;7.684;2022-10-16T05:51:44;3.00;;;1.10;;
70467;SDS011;57934;51.532;7.684;2022-10-16T05:54:10;1.75;;;1.00;;
70467;SDS011;57934;51.532;7.684;2022-10-16T05:56:37;2.45;;;1.73;;
70467;SDS011;57934;51.532;7.684;2022-10-16T05:59:03;1.02;;;0.88;;
70467;SDS011;57934;51.532;7.684;2022-10-16T06:01:29;0.90;;;0.80;;
70467;SDS011;57934;51.532;7.684;2022-10-16T06:03:56;1.30;;;1.20;;
70467;SDS011;57934;51.532;7.684;2022-10-16T06:06:25;2.25;;;1.20;;
70467;SDS011;57934;51.532;7.684;2022-10-16T06:08:55;3.33;;;1.30;;
70467;SDS011;57934;51.532;7.684;2022-10-16T06:11:23;1.40;;;0.98;;
70467;SDS011;57934;51.532;7.684;2022-10-16T06:13:52;1.40;;;1.10;;
70467;SDS011;57934;51.532;7.684;2022-10-16T06:16:20;2.38;;;1.05;;
70467;SDS011;57934;51.532;7.684;2022-10-16T06:18:46;5.40;;;1.13;;
70467;SDS011;57934;51.532;7.684;2022-10-16T06:21:16;2.92;;;1.08;;
70467;SDS011;57934;51.532;7.684;2022-10-16T06:23:44;1.02;;;0.90;;
70467;SDS011;57934;51.532;7.684;2022-10-16T06:26:14;2.10;;;1.20;;
70467;SDS011;57934;51.532;7.684;2022-10-16T06:28:41;3.08;;;1.27;;
70467;SDS011;57934;51.532;7.684;2022-10-16T06:31:08;1.23;;;0.93;;
70467;SDS011;57934;51.532;7.684;2022-10-16T06:33:36;4.35;;;1.10;;
70467;SDS011;57934;51.532;7.684;2022-10-16T06:36:03;1.08;;;1.05;;
70467;SDS011;57934;51.532;7.684;2022-10-16T06:38:34;1.70;;;1.15;;
70467;SDS011;57934;51.532;7.684;2022-10-16T06:41:01;2.03;;;1.23;;
70467;SDS011;57934;51.532;7.684;2022-10-16T06:43:31;2.67;;;1.00;;
70467;SDS011;57934;51.532;7.684;2022-10-16T06:45:58;1.00;;;0.90;;
70467;SDS011;57934;51.532;7.684;2022-10-16T06:48:26;1.95;;;1.00;;
70467;SDS011;57934;51.532;7.684;2022-10-16T06:50:56;2.13;;;1.00;;
70467;SDS011;57934;51.532;7.684;2022-10-16T06:53:23;0.60;;;0.60;;
70467;SDS011;57934;51.532;7.684;2022-10-16T06:55:49;1.45;;;0.90;;
70467;SDS011;57934;51.532;7.684;2022-10-16T06:58:16;1.80;;;1.10;;
70467;SDS011;57934;51.532;7.684;2022-10-16T07:00:43;1.42;;;0.80;;
70467;SDS011;57934;51.532;7.684;2022-10-16T07:03:09;1.45;;;0.88;;
70467;SDS011;57934;51.532;7.684;2022-10-16T07:05:39;1.50;;;1.23;;
70467;SDS011;57934;51.532;7.684;2022-10-16T07:08:06;1.95;;;0.95;;
70467;SDS011;57934;51.532;7.684;2022-10-16T07:10:32;1.42;;;1.10;;
70467;SDS011;57934;51.532;7.684;2022-10-16T07:12:59;1.75;;;0.98;;
70467;SDS011;57934;51.532;7.684;2022-10-16T07:15:25;0.88;;;0.80;;
70467;SDS011;57934;51.532;7.684;2022-10-16T07:17:52;2.72;;;0.95;;
70467;SDS011;57934;51.532;7.684;2022-10-16T07:20:18;3.00;;;1.30;;
70467;SDS011;57934;51.532;7.684;2022-10-16T07:22:44;1.88;;;1.00;;
70467;SDS011;57934;51.532;7.684;2022-10-16T07:25:10;2.53;;;1.05;;
70467;SDS011;57934;51.532;7.684;2022-10-16T07:27:37;2.45;;;0.85;;
70467;SDS011;57934;51.532;7.684;2022-10-16T07:30:04;5.82;;;1.10;;
70467;SDS011;57934;51.532;7.684;2022-10-16T07:32:31;3.97;;;1.02;;
70467;SDS011;57934;51.532;7.684;2022-10-16T07:34:58;1.58;;;1.00;;
70467;SDS011;57934;51.532;7.684;2022-10-16T07:37:24;1.83;;;1.05;;
70467;SDS011;57934;51.532;7.684;2022-10-16T07:39:50;1.02;;;0.70;;
70467;SDS011;57934;51.532;7.684;2022-10-16T07:42:16;1.48;;;0.82;;
70467;SDS011;57934;51.532;7.684;2022-10-16T07:44:42;4.32;;;1.00;;
70467;SDS011;57934;51.532;7.684;2022-10-16T07:47:08;1.13;;;0.77;;
70467;SDS011;57934;51.532;7.684;2022-10-16T07:49:35;1.60;;;0.80;;
70467;SDS011;57934;51.532;7.684;2022-10-16T07:52:01;0.88;;;0.80;;
70467;SDS011;57934;51.532;7.684;2022-10-16T07:54:27;3.20;;;1.08;;
70467;SDS011;57934;51.532;7.684;2022-10-16T07:56:53;3.17;;;1.13;;
70467;SDS011;57934;51.532;7.684;2022-10-16T07:59:19;6.72;;;1.00;;
70467;SDS011;57934;51.532;7.684;2022-10-16T08:01:45;2.03;;;1.13;;
70467;SDS011;57934;51.532;7.684;2022-10-16T08:04:11;4.78;;;1.10;;
70467;SDS011;57934;51.532;7.684;2022-10-16T08:06:38;3.47;;;1.00;;
70467;SDS011;57934;51.532;7.684;2022-10-16T08:09:05;1.50;;;0.93;;
70467;SDS011;57934;51.532;7.684;2022-10-16T08:11:32;1.55;;;1.13;;
70467;SDS011;57934;51.532;7.684;2022-10-16T08:13:59;1.48;;;1.20;;
70467;SDS011;57934;51.532;7.684;2022-10-16T08:16:25;1.40;;;1.30;;
70467;SDS011;57934;51.532;7.684;2022-10-16T08:18:51;1.05;;;0.90;;
70467;SDS011;57934;51.532;7.684;2022-10-16T08:21:19;1.35;;;0.82;;
70467;SDS011;57934;51.532;7.684;2022-10-16T08:23:49;1.20;;;1.02;;
70467;SDS011;57934;51.532;7.684;2022-10-16T08:26:16;1.00;;;0.80;;
70467;SDS011;57934;51.532;7.684;2022-10-16T08:28:42;3.83;;;1.27;;
70467;SDS011;57934;51.532;7.684;2022-10-16T08:31:12;2.05;;;0.80;;
70467;SDS011;57934;51.532;7.684;2022-10-16T08:33:40;1.13;;;0.60;;
70467;SDS011;57934;51.532;7.684;2022-10-16T08:36:09;1.17;;;0.73;;
70467;SDS011;57934;51.532;7.684;2022-10-16T08:38:36;1.02;;;0.70;;
70467;SDS011;57934;51.532;7.684;2022-10-16T08:46:37;1.88;;;0.70;;
70467;SDS011;57934;51.532;7.684;2022-10-16T08:49:22;2.35;;;0.70;;
70467;SDS011;57934;51.532;7.684;2022-10-16T08:51:51;2.53;;;0.80;;
70467;SDS011;57934;51.532;7.684;2022-10-16T08:54:34;0.88;;;0.70;;
70467;SDS011;57934;51.532;7.684;2022-10-16T08:57:20;1.75;;;0.60;;
70467;SDS011;57934;51.532;7.684;2022-10-16T08:59:48;3.15;;;0.80;;
70467;SDS011;57934;51.532;7.684;2022-10-16T09:02:19;1.20;;;0.73;;
70467;SDS011;57934;51.532;7.684;2022-10-16T09:08:48;2.55;;;0.90;;
70467;SDS011;57934;51.532;7.684;2022-10-16T09:11:00;1.85;;;0.90;;
70467;SDS011;57934;51.532;7.684;2022-10-16T09:21:30;1.27;;;0.70;;
70467;SDS011;57934;51.532;7.684;2022-10-16T09:24:04;2.17;;;0.82;;
70467;SDS011;57934;51.532;7.684;2022-10-16T09:26:37;1.63;;;0.60;;
70467;SDS011;57934;51.532;7.684;2022-10-16T09:29:03;1.83;;;0.80;;
70467;SDS011;57934;51.532;7.684;2022-10-16T09:31:29;2.88;;;0.93;;
70467;SDS011;57934;51.532;7.684;2022-10-16T09:33:57;0.98;;;0.63;;
70467;SDS011;57934;51.532;7.684;2022-10-16T09:36:25;1.98;;;0.63;;
70467;SDS011;57934;51.532;7.684;2022-10-16T09:39:07;1.50;;;0.70;;
70467;SDS011;57934;51.532;7.684;2022-10-16T09:41:38;1.83;;;0.80;;
70467;SDS011;57934;51.532;7.684;2022-10-16T09:44:41;4.40;;;1.02;;
70467;SDS011;57934;51.532;7.684;2022-10-16T09:47:03;1.88;;;0.60;;
70467;SDS011;57934;51.532;7.684;2022-10-16T09:49:50;2.60;;;0.70;;
70467;SDS011;57934;51.532;7.684;2022-10-16T09:52:28;2.13;;;0.63;;
70467;SDS011;57934;51.532;7.684;2022-10-16T09:54:58;1.85;;;0.75;;
70467;SDS011;57934;51.532;7.684;2022-10-16T09:57:26;2.92;;;0.50;;
70467;SDS011;57934;51.532;7.684;2022-10-16T09:59:57;1.23;;;0.52;;
70467;SDS011;57934;51.532;7.684;2022-10-16T10:04:53;2.03;;;0.50;;
70467;SDS011;57934;51.532;7.684;2022-10-16T10:07:21;3.88;;;1.35;;
70467;SDS011;57934;51.532;7.684;2022-10-16T10:09:51;6.38;;;1.65;;
70467;SDS011;57934;51.532;7.684;2022-10-16T10:12:23;3.38;;;1.77;;
70467;SDS011;57934;51.532;7.684;2022-10-16T10:14:51;6.00;;;1.27;;
70467;SDS011;57934;51.532;7.684;2022-10-16T10:17:23;4.53;;;0.90;;
70467;SDS011;57934;51.532;7.684;2022-10-16T10:22:25;1.45;;;0.60;;
70467;SDS011;57934;51.532;7.684;2022-10-16T10:25:37;2.05;;;0.80;;
70467;SDS011;57934;51.532;7.684;2022-10-16T10:50:49;4.40;;;0.98;;
70467;SDS011;57934;51.532;7.684;2022-10-16T10:56:11;3.10;;;0.70;;
70467;SDS011;57934;51.532;7.684;2022-10-16T11:01:50;2.33;;;0.70;;
70467;SDS011;57934;51.532;7.684;2022-10-16T11:04:45;3.03;;;0.75;;
70467;SDS011;57934;51.532;7.684;2022-10-16T11:07:36;0.93;;;0.47;;
70467;SDS011;57934;51.532;7.684;2022-10-16T11:10:12;1.98;;;0.60;;
70467;SDS011;57934;51.532;7.684;2022-10-16T11:12:44;1.17;;;0.60;;
70467;SDS011;57934;51.532;7.684;2022-10-16T11:15:18;2.92;;;1.00;;
70467;SDS011;57934;51.532;7.684;2022-10-16T11:20:42;0.98;;;0.88;;
70467;SDS011;57934;51.532;7.684;2022-10-16T11:25:51;2.15;;;0.70;;
70467;SDS011;57934;51.532;7.684;2022-10-16T11:28:35;1.92;;;0.70;;
70467;SDS011;57934;51.532;7.684;2022-10-16T11:31:11;1.13;;;0.70;;
70467;SDS011;57934;51.532;7.684;2022-10-16T11:41:59;0.47;;;0.30;;
70467;SDS011;57934;51.532;7.684;2022-10-16T11:50:17;3.80;;;0.57;;
70467;SDS011;57934;51.532;7.684;2022-10-16T11:55:44;1.73;;;1.20;;
70467;SDS011;57934;51.532;7.684;2022-10-16T11:58:22;1.50;;;0.82;;
70467;SDS011;57934;51.532;7.684;2022-10-16T12:06:28;1.27;;;0.70;;
70467;SDS011;57934;51.532;7.684;2022-10-16T12:08:58;1.45;;;0.43;;
70467;SDS011;57934;51.532;7.684;2022-10-16T12:14:02;2.95;;;0.77;;
70467;SDS011;57934;51.532;7.684;2022-10-16T12:16:38;1.52;;;0.60;;
70467;SDS011;57934;51.532;7.684;2022-10-16T12:19:17;4.10;;;0.70;;
70467;SDS011;57934;51.532;7.684;2022-10-16T12:21:43;2.28;;;0.70;;
70467;SDS011;57934;51.532;7.684;2022-10-16T12:24:21;3.38;;;0.95;;
70467;SDS011;57934;51.532;7.684;2022-10-16T12:26:55;3.45;;;0.70;;
70467;SDS011;57934;51.532;7.684;2022-10-16T12:35:26;3.47;;;0.52;;
70467;SDS011;57934;51.532;7.684;2022-10-16T12:38:04;3.33;;;0.43;;
70467;SDS011;57934;51.532;7.684;2022-10-16T12:41:09;1.75;;;0.50;;
70467;SDS011;57934;51.532;7.684;2022-10-16T12:43:37;0.80;;;0.45;;
70467;SDS011;57934;51.532;7.684;2022-10-16T12:48:40;3.42;;;0.50;;
70467;SDS011;57934;51.532;7.684;2022-10-16T12:51:11;2.38;;;0.40;;
70467;SDS011;57934;51.532;7.684;2022-10-16T12:56:28;0.50;;;0.50;;
70467;SDS011;57934;51.532;7.684;2022-10-16T13:10:39;0.88;;;0.50;;
70467;SDS011;57934;51.532;7.684;2022-10-16T13:23:59;2.47;;;0.60;;
70467;SDS011;57934;51.532;7.684;2022-10-16T13:29:22;0.65;;;0.55;;
70467;SDS011;57934;51.532;7.684;2022-10-16T13:31:48;3.75;;;0.57;;
70467;SDS011;57934;51.532;7.684;2022-10-16T13:34:15;1.90;;;0.70;;
70467;SDS011;57934;51.532;7.684;2022-10-16T13:36:45;3.25;;;0.50;;
70467;SDS011;57934;51.532;7.684;2022-10-16T13:39:25;2.55;;;0.43;;
70467;SDS011;57934;51.532;7.684;2022-10-16T13:42:06;2.30;;;0.70;;
70467;SDS011;57934;51.532;7.684;2022-10-16T13:44:48;2.13;;;0.75;;
70467;SDS011;57934;51.532;7.684;2022-10-16T13:47:23;2.15;;;0.70;;
70467;SDS011;57934;51.532;7.684;2022-10-16T13:50:00;1.88;;;0.50;;
70467;SDS011;57934;51.532;7.684;2022-10-16T13:52:29;3.28;;;0.55;;
70467;SDS011;57934;51.532;7.684;2022-10-16T13:54:55;3.28;;;0.70;;
70467;SDS011;57934;51.532;7.684;2022-10-16T13:57:22;1.20;;;0.60;;
70467;SDS011;57934;51.532;7.684;2022-10-16T13:59:51;1.42;;;0.50;;
70467;SDS011;57934;51.532;7.684;2022-10-16T14:02:27;2.28;;;0.40;;
70467;SDS011;57934;51.532;7.684;2022-10-16T14:05:03;1.30;;;0.50;;
70467;SDS011;57934;51.532;7.684;2022-10-16T14:07:33;2.65;;;0.60;;
70467;SDS011;57934;51.532;7.684;2022-10-16T14:10:02;3.10;;;0.70;;
70467;SDS011;57934;51.532;7.684;2022-10-16T14:12:31;2.35;;;0.43;;
70467;SDS011;57934;51.532;7.684;2022-10-16T14:14:58;2.08;;;0.38;;
70467;SDS011;57934;51.532;7.684;2022-10-16T14:17:26;2.05;;;0.52;;
70467;SDS011;57934;51.532;7.684;2022-10-16T14:19:53;2.20;;;0.55;;
70467;SDS011;57934;51.532;7.684;2022-10-16T14:22:32;3.33;;;0.40;;
70467;SDS011;57934;51.532;7.684;2022-10-16T14:25:16;0.93;;;0.57;;
70467;SDS011;57934;51.532;7.684;2022-10-16T14:30:53;5.55;;;1.30;;
70467;SDS011;57934;51.532;7.684;2022-10-16T14:33:24;3.13;;;0.73;;
70467;SDS011;57934;51.532;7.684;2022-10-16T14:36:11;2.20;;;0.45;;
70467;SDS011;57934;51.532;7.684;2022-10-16T14:41:13;3.22;;;0.60;;
70467;SDS011;57934;51.532;7.684;2022-10-16T14:43:41;2.13;;;0.75;;
70467;SDS011;57934;51.532;7.684;2022-10-16T14:46:11;1.58;;;0.50;;
70467;SDS011;57934;51.532;7.684;2022-10-16T14:48:43;1.20;;;0.57;;
70467;SDS011;57934;51.532;7.684;2022-10-16T14:51:14;2.13;;;0.75;;
70467;SDS011;57934;51.532;7.684;2022-10-16T14:53:41;1.95;;;0.52;;
70467;SDS011;57934;51.532;7.684;2022-10-16T14:56:08;1.67;;;0.43;;
70467;SDS011;57934;51.532;7.684;2022-10-16T14:58:40;4.20;;;0.77;;
70467;SDS011;57934;51.532;7.684;2022-10-16T15:01:07;0.98;;;0.47;;
70467;SDS011;57934;51.532;7.684;2022-10-16T15:03:34;2.80;;;0.52;;
70467;SDS011;57934;51.532;7.684;2022-10-16T15:06:00;2.55;;;0.82;;
70467;SDS011;57934;51.532;7.684;2022-10-16T15:08:26;3.47;;;0.77;;
70467;SDS011;57934;51.532;7.684;2022-10-16T15:10:52;3.22;;;0.60;;
70467;SDS011;57934;51.532;7.684;2022-10-16T15:13:18;0.45;;;0.40;;
70467;SDS011;57934;51.532;7.684;2022-10-16T15:15:45;1.77;;;0.70;;
70467;SDS011;57934;51.532;7.684;2022-10-16T15:18:12;2.60;;;0.68;;
70467;SDS011;57934;51.532;7.684;2022-10-16T15:20:40;3.58;;;0.80;;
70467;SDS011;57934;51.532;7.684;2022-10-16T15:23:12;2.33;;;0.68;;
70467;SDS011;57934;51.532;7.684;2022-10-16T15:25:42;0.98;;;0.40;;
70467;SDS011;57934;51.532;7.684;2022-10-16T15:28:10;0.70;;;0.60;;
70467;SDS011;57934;51.532;7.684;2022-10-16T15:30:37;2.42;;;0.70;;
70467;SDS011;57934;51.532;7.684;2022-10-16T15:33:04;2.22;;;0.85;;
70467;SDS011;57934;51.532;7.684;2022-10-16T15:35:36;4.85;;;0.95;;
70467;SDS011;57934;51.532;7.684;2022-10-16T15:38:02;3.92;;;0.88;;
70467;SDS011;57934;51.532;7.684;2022-10-16T15:40:28;3.40;;;0.60;;
70467;SDS011;57934;51.532;7.684;2022-10-16T15:42:54;1.45;;;0.80;;
70467;SDS011;57934;51.532;7.684;2022-10-16T15:45:20;1.88;;;1.10;;
70467;SDS011;57934;51.532;7.684;2022-10-16T15:47:46;3.25;;;0.70;;
70467;SDS011;57934;51.532;7.684;2022-10-16T15:50:13;12.13;;;1.30;;
70467;SDS011;57934;51.532;7.684;2022-10-16T15:52:40;2.30;;;1.35;;
70467;SDS011;57934;51.532;7.684;2022-10-16T15:55:11;2.00;;;0.82;;
70467;SDS011;57934;51.532;7.684;2022-10-16T15:57:38;5.65;;;1.15;;
70467;SDS011;57934;51.532;7.684;2022-10-16T16:00:14;3.10;;;1.48;;
70467;SDS011;57934;51.532;7.684;2022-10-16T16:02:43;5.57;;;1.10;;
70467;SDS011;57934;51.532;7.684;2022-10-16T16:05:15;6.68;;;1.25;;
70467;SDS011;57934;51.532;7.684;2022-10-16T16:07:41;3.95;;;1.13;;
70467;SDS011;57934;51.532;7.684;2022-10-16T16:10:08;3.00;;;1.10;;
70467;SDS011;57934;51.532;7.684;2022-10-16T16:12:35;4.40;;;0.95;;
70467;SDS011;57934;51.532;7.684;2022-10-16T16:15:03;3.80;;;1.33;;
70467;SDS011;57934;51.532;7.684;2022-10-16T16:17:33;1.25;;;0.90;;
70467;SDS011;57934;51.532;7.684;2022-10-16T16:20:00;2.65;;;1.15;;
70467;SDS011;57934;51.532;7.684;2022-10-16T16:22:26;5.45;;;1.33;;
70467;SDS011;57934;51.532;7.684;2022-10-16T16:24:53;3.47;;;1.20;;
70467;SDS011;57934;51.532;7.684;2022-10-16T16:27:19;4.07;;;1.52;;
70467;SDS011;57934;51.532;7.684;2022-10-16T16:29:46;3.50;;;1.70;;
70467;SDS011;57934;51.532;7.684;2022-10-16T16:32:12;5.30;;;1.70;;
70467;SDS011;57934;51.532;7.684;2022-10-16T16:34:38;3.28;;;1.65;;
70467;SDS011;57934;51.532;7.684;2022-10-16T16:37:04;2.88;;;1.25;;
70467;SDS011;57934;51.532;7.684;2022-10-16T16:39:30;5.38;;;1.75;;
70467;SDS011;57934;51.532;7.684;2022-10-16T16:41:57;3.80;;;1.45;;
70467;SDS011;57934;51.532;7.684;2022-10-16T16:44:24;3.78;;;1.30;;
70467;SDS011;57934;51.532;7.684;2022-10-16T16:46:50;5.90;;;1.20;;
70467;SDS011;57934;51.532;7.684;2022-10-16T16:49:17;2.55;;;0.90;;
70467;SDS011;57934;51.532;7.684;2022-10-16T16:51:43;4.03;;;1.20;;
70467;SDS011;57934;51.532;7.684;2022-10-16T16:54:09;6.90;;;1.52;;
70467;SDS011;57934;51.532;7.684;2022-10-16T16:56:38;4.07;;;1.40;;
70467;SDS011;57934;51.532;7.684;2022-10-16T16:59:05;7.18;;;1.17;;
70467;SDS011;57934;51.532;7.684;2022-10-16T17:01:31;5.78;;;1.30;;
70467;SDS011;57934;51.532;7.684;2022-10-16T17:03:57;3.25;;;1.30;;
70467;SDS011;57934;51.532;7.684;2022-10-16T17:06:25;3.47;;;1.10;;
70467;SDS011;57934;51.532;7.684;2022-10-16T17:08:55;4.57;;;1.40;;
70467;SDS011;57934;51.532;7.684;2022-10-16T17:11:23;3.45;;;1.52;;
70467;SDS011;57934;51.532;7.684;2022-10-16T17:13:50;2.42;;;1.27;;
70467;SDS011;57934;51.532;7.684;2022-10-16T17:16:20;1.55;;;1.20;;
70467;SDS011;57934;51.532;7.684;2022-10-16T17:18:46;3.17;;;1.55;;
70467;SDS011;57934;51.532;7.684;2022-10-16T17:21:12;1.50;;;1.30;;